createdAt,value
2023-02-27T00:00:48.295Z,5.00
2023-02-27T00:03:10.373Z,2.70
2023-02-27T00:05:25.632Z,3.10
2023-02-27T00:07:38.932Z,2.60
2023-02-27T00:09:52.579Z,5.20
2023-02-27T00:12:06.998Z,2.90
2023-02-27T00:14:20.583Z,4.70
2023-02-27T00:16:34.546Z,4.90
2023-02-27T00:18:47.923Z,4.30
2023-02-27T00:21:01.064Z,6.20
2023-02-27T00:23:14.542Z,3.40
2023-02-27T00:25:28.074Z,6.10
2023-02-27T00:27:41.462Z,3.70
2023-02-27T00:29:54.774Z,2.70
2023-02-27T00:32:08.102Z,2.60
2023-02-27T00:34:21.573Z,3.90
2023-02-27T00:36:35.784Z,4.50
2023-02-27T00:38:50.570Z,4.20
2023-02-27T00:41:04.788Z,5.60
2023-02-27T00:43:18.509Z,3.40
2023-02-27T00:45:32.575Z,2.90
2023-02-27T00:47:47.118Z,4.90
2023-02-27T00:50:01.875Z,4.00
2023-02-27T00:52:15.399Z,5.50
2023-02-27T00:54:28.629Z,4.70
2023-02-27T00:56:42.571Z,4.90
2023-02-27T00:58:56.506Z,2.30
2023-02-27T01:01:09.842Z,2.50
2023-02-27T01:03:23.188Z,2.70
2023-02-27T01:05:36.871Z,2.80
2023-02-27T01:07:50.463Z,2.60
2023-02-27T01:10:04.541Z,1.50
2023-02-27T01:12:18.341Z,1.20
2023-02-27T01:14:35.514Z,1.20
2023-02-27T01:16:49.563Z,0.70
2023-02-27T01:19:03.510Z,1.10
2023-02-27T01:21:16.935Z,0.70
2023-02-27T01:23:30.955Z,1.20
2023-02-27T01:25:44.194Z,1.00
2023-02-27T01:27:57.515Z,1.10
2023-02-27T01:30:13.817Z,0.60
2023-02-27T01:32:27.148Z,0.70
2023-02-27T01:34:40.978Z,0.80
2023-02-27T01:36:54.626Z,0.70
2023-02-27T01:39:07.954Z,1.60
2023-02-27T01:41:21.108Z,2.80
2023-02-27T01:43:34.918Z,2.40
2023-02-27T01:45:50.081Z,1.10
2023-02-27T01:48:09.818Z,11.10
2023-02-27T01:50:24.103Z,6.30
2023-02-27T01:52:39.459Z,2.20
2023-02-27T01:54:52.606Z,0.70
2023-02-27T01:57:08.136Z,3.90
2023-02-27T01:59:22.607Z,18.10
2023-02-27T02:01:38.318Z,7.40
2023-02-27T02:03:58.247Z,5.10
2023-02-27T02:06:13.463Z,1.30
2023-02-27T02:08:29.928Z,2.20
2023-02-27T02:10:43.534Z,2.00
2023-02-27T02:12:57.413Z,2.00
2023-02-27T02:15:12.244Z,4.70
2023-02-27T02:17:41.485Z,10.90
2023-02-27T02:20:27.095Z,7.50
2023-02-27T02:23:17.152Z,3.50
2023-02-27T02:26:03.279Z,2.00
2023-02-27T02:28:30.642Z,1.60
2023-02-27T02:31:24.424Z,0.80
2023-02-27T02:34:12.199Z,2.20
2023-02-27T02:37:00.237Z,2.60
2023-02-27T02:39:53.732Z,4.20
2023-02-27T02:44:27.232Z,0.80
2023-02-27T02:46:50.916Z,1.40
2023-02-27T02:49:16.937Z,1.00
2023-02-27T02:51:39.408Z,1.40
2023-02-27T02:56:14.706Z,7.50
2023-02-27T02:58:36.855Z,2.70
2023-02-27T03:00:56.470Z,1.80
2023-02-27T03:03:17.222Z,1.20
2023-02-27T03:05:40.645Z,1.50
2023-02-27T03:08:00.758Z,2.60
2023-02-27T03:10:19.823Z,1.90
2023-02-27T03:12:37.464Z,1.20
2023-02-27T03:14:55.763Z,1.60
2023-02-27T03:17:14.564Z,4.90
2023-02-27T03:19:34.753Z,2.90
2023-02-27T03:21:54.719Z,5.40
2023-02-27T03:24:15.558Z,2.80
2023-02-27T03:26:35.500Z,5.30
2023-02-27T03:28:59.040Z,1.50
2023-02-27T03:31:18.045Z,6.00
2023-02-27T03:33:36.477Z,5.40
2023-02-27T03:35:57.870Z,2.70
2023-02-27T03:38:22.297Z,4.40
2023-02-27T03:40:41.971Z,4.70
2023-02-27T03:43:06.693Z,4.30
2023-02-27T03:45:36.290Z,3.30
2023-02-27T03:47:49.926Z,2.50
2023-02-27T03:50:04.038Z,2.80
2023-02-27T03:52:19.887Z,1.40
2023-02-27T03:54:39.951Z,1.40
2023-02-27T03:56:59.814Z,4.40
2023-02-27T03:59:14.846Z,3.00
2023-02-27T04:01:33.007Z,2.90
2023-02-27T04:03:53.097Z,1.60
2023-02-27T04:06:38.571Z,1.10
2023-02-27T04:09:03.138Z,2.20
2023-02-27T04:11:35.234Z,1.70
2023-02-27T04:14:01.989Z,2.40
2023-02-27T04:16:41.806Z,1.10
2023-02-27T04:19:12.253Z,1.80
2023-02-27T04:21:33.056Z,1.30
2023-02-27T04:23:52.863Z,0.80
2023-02-27T04:26:20.367Z,0.80
2023-02-27T04:28:44.051Z,0.60
2023-02-27T04:31:06.814Z,0.80
2023-02-27T04:33:37.279Z,2.70
2023-02-27T04:35:55.689Z,1.10
2023-02-27T04:38:18.312Z,2.00
2023-02-27T04:40:38.352Z,0.80
2023-02-27T04:42:56.998Z,1.80
2023-02-27T04:45:15.545Z,2.90
2023-02-27T04:47:33.164Z,0.90
2023-02-27T04:49:54.925Z,0.90
2023-02-27T04:52:15.427Z,0.80
2023-02-27T04:54:36.634Z,0.70
2023-02-27T04:56:55.950Z,0.80
2023-02-27T04:59:15.519Z,1.70
2023-02-27T05:01:35.107Z,5.50
2023-02-27T05:03:52.305Z,4.80
2023-02-27T05:06:08.465Z,3.00
2023-02-27T05:08:27.973Z,1.10
2023-02-27T05:10:47.078Z,0.70
2023-02-27T05:13:06.643Z,0.80
2023-02-27T05:15:26.302Z,0.70
2023-02-27T05:17:46.454Z,0.90
2023-02-27T05:20:01.673Z,0.60
2023-02-27T05:22:27.985Z,2.20
2023-02-27T05:24:50.134Z,1.50
2023-02-27T05:27:36.419Z,0.60
2023-02-27T05:29:58.882Z,0.90
2023-02-27T05:32:23.251Z,0.80
2023-02-27T05:34:43.867Z,0.80
2023-02-27T05:37:05.731Z,0.70
2023-02-27T05:39:24.231Z,0.70
2023-02-27T05:41:45.243Z,0.60
2023-02-27T05:44:06.396Z,0.70
2023-02-27T05:46:24.557Z,0.70
2023-02-27T05:48:42.987Z,0.90
2023-02-27T05:50:58.418Z,3.10
2023-02-27T05:53:15.316Z,0.90
2023-02-27T05:55:34.757Z,0.60
2023-02-27T05:57:52.832Z,0.80
2023-02-27T06:00:12.506Z,0.60
2023-02-27T06:02:26.060Z,0.50
2023-02-27T06:04:40.473Z,0.60
2023-02-27T06:06:55.355Z,0.50
2023-02-27T06:09:08.554Z,0.70
2023-02-27T06:11:21.986Z,0.70
2023-02-27T06:13:35.352Z,0.80
2023-02-27T06:15:50.563Z,1.60
2023-02-27T06:18:04.339Z,1.20
2023-02-27T06:20:19.633Z,1.40
2023-02-27T06:22:33.012Z,1.30
2023-02-27T06:24:46.996Z,0.70
2023-02-27T06:27:00.549Z,0.60
2023-02-27T06:29:13.593Z,0.60
2023-02-27T06:31:26.952Z,0.70
2023-02-27T06:33:40.590Z,0.60
2023-02-27T06:35:57.041Z,1.50
2023-02-27T06:38:10.412Z,0.50
2023-02-27T06:40:24.144Z,0.50
2023-02-27T06:42:37.677Z,0.90
2023-02-27T06:44:51.358Z,0.80
2023-02-27T06:47:04.658Z,0.70
2023-02-27T06:49:18.707Z,0.60
2023-02-27T06:51:32.287Z,1.10
2023-02-27T06:53:45.525Z,0.80
2023-02-27T06:55:58.946Z,0.80
2023-02-27T06:58:12.925Z,0.70
2023-02-27T07:00:30.679Z,0.80
2023-02-27T07:02:43.900Z,0.90
2023-02-27T07:04:57.119Z,1.10
2023-02-27T07:07:35.795Z,1.40
2023-02-27T07:09:45.776Z,1.60
2023-02-27T07:11:59.284Z,0.90
2023-02-27T07:14:14.018Z,0.60
2023-02-27T07:16:28.029Z,0.70
2023-02-27T07:18:41.287Z,0.70
2023-02-27T07:20:56.565Z,0.50
2023-02-27T07:23:10.246Z,0.50
2023-02-27T07:25:23.536Z,0.50
2023-02-27T07:27:36.990Z,0.60
2023-02-27T07:29:50.057Z,0.50
2023-02-27T07:32:03.235Z,0.80
2023-02-27T07:34:17.024Z,0.60
2023-02-27T07:36:31.316Z,0.60
2023-02-27T07:38:44.896Z,0.50
2023-02-27T07:41:00.050Z,0.50
2023-02-27T07:43:13.908Z,0.70
2023-02-27T07:45:28.590Z,0.70
2023-02-27T07:47:41.904Z,0.70
2023-02-27T07:49:55.720Z,0.60
2023-02-27T07:52:09.517Z,0.70
2023-02-27T07:54:23.674Z,0.80
2023-02-27T07:56:36.961Z,0.70
2023-02-27T07:58:50.088Z,0.60
2023-02-27T08:01:04.272Z,0.60
2023-02-27T08:03:17.871Z,0.90
2023-02-27T08:05:32.403Z,2.10
2023-02-27T08:07:45.740Z,2.90
2023-02-27T08:09:59.447Z,3.30
2023-02-27T08:12:12.859Z,1.00
2023-02-27T08:14:27.133Z,0.70
2023-02-27T08:16:40.940Z,0.60
2023-02-27T08:18:54.466Z,0.60
2023-02-27T08:21:08.168Z,0.60
2023-02-27T08:23:21.104Z,0.50
2023-02-27T08:25:34.205Z,0.50
2023-02-27T08:27:47.963Z,0.50
2023-02-27T08:30:02.065Z,0.50
2023-02-27T08:32:15.632Z,0.50
2023-02-27T08:34:28.781Z,0.60
2023-02-27T08:36:42.521Z,0.80
2023-02-27T08:38:55.972Z,1.10
2023-02-27T08:41:09.822Z,1.10
2023-02-27T08:43:23.029Z,0.70
2023-02-27T08:45:36.432Z,0.50
2023-02-27T08:47:50.680Z,0.50
2023-02-27T08:50:04.579Z,0.50
2023-02-27T08:52:18.306Z,0.50
2023-02-27T08:54:33.205Z,0.50
2023-02-27T08:56:46.680Z,0.50
2023-02-27T08:59:00.799Z,0.50
2023-02-27T09:01:13.915Z,0.50
2023-02-27T09:03:29.770Z,0.50
2023-02-27T09:05:43.907Z,0.50
2023-02-27T09:07:56.934Z,0.50
2023-02-27T09:10:10.707Z,0.50
2023-02-27T09:12:23.862Z,0.40
2023-02-27T09:14:37.463Z,0.60
2023-02-27T09:16:50.874Z,0.40
2023-02-27T09:19:04.132Z,0.50
2023-02-27T09:21:17.462Z,0.40
2023-02-27T09:23:30.923Z,0.40
2023-02-27T09:25:43.943Z,0.50
2023-02-27T09:27:57.525Z,0.50
2023-02-27T09:30:16.080Z,0.60
2023-02-27T09:32:30.579Z,0.50
2023-02-27T09:34:43.541Z,0.50
2023-02-27T09:36:57.252Z,0.50
2023-02-27T09:39:11.979Z,0.60
2023-02-27T09:41:45.803Z,1.00
2023-02-27T09:43:59.982Z,0.60
2023-02-27T09:46:19.169Z,0.40
2023-02-27T09:48:38.653Z,0.50
2023-02-27T09:50:55.271Z,0.50
2023-02-27T09:53:10.043Z,0.70
2023-02-27T09:55:25.474Z,0.50
2023-02-27T09:57:49.729Z,0.90
2023-02-27T10:00:08.491Z,0.50
2023-02-27T10:02:36.866Z,0.50
2023-02-27T10:04:57.100Z,0.50
2023-02-27T10:07:19.831Z,0.50
2023-02-27T10:09:43.352Z,0.50
2023-02-27T10:12:10.019Z,1.30
2023-02-27T10:14:38.838Z,0.60
2023-02-27T10:16:54.734Z,0.50
2023-02-27T10:19:11.283Z,0.40
2023-02-27T10:21:31.054Z,0.50
2023-02-27T10:23:48.304Z,0.50
2023-02-27T10:26:02.106Z,0.50
2023-02-27T10:28:19.435Z,0.50
2023-02-27T10:30:35.108Z,0.40
2023-02-27T10:32:48.917Z,0.50
2023-02-27T10:35:11.489Z,0.40
2023-02-27T10:37:29.421Z,0.50
2023-02-27T10:39:51.245Z,0.50
2023-02-27T10:42:09.829Z,0.40
2023-02-27T10:44:23.095Z,1.70
2023-02-27T10:46:39.375Z,1.10
2023-02-27T10:48:52.404Z,0.80
2023-02-27T10:51:27.953Z,0.60
2023-02-27T10:53:41.083Z,1.10
2023-02-27T10:56:05.729Z,1.00
2023-02-27T10:58:24.444Z,1.60
2023-02-27T11:00:56.601Z,1.40
2023-02-27T11:03:11.151Z,1.10
2023-02-27T11:05:29.961Z,0.70
2023-02-27T11:07:44.132Z,0.50
2023-02-27T11:10:18.914Z,0.50
2023-02-27T11:12:33.879Z,0.40
2023-02-27T11:14:55.096Z,0.50
2023-02-27T11:17:09.350Z,0.50
2023-02-27T11:19:36.465Z,0.50
2023-02-27T11:22:06.903Z,0.50
2023-02-27T11:24:26.564Z,0.40
2023-02-27T11:26:41.278Z,0.40
2023-02-27T11:29:10.744Z,0.40
2023-02-27T11:31:27.784Z,0.40
2023-02-27T11:33:53.035Z,0.40
2023-02-27T11:36:06.005Z,0.40
2023-02-27T11:38:27.389Z,0.40
2023-02-27T11:40:43.245Z,0.40
2023-02-27T11:42:59.684Z,0.40
2023-02-27T11:46:11.168Z,0.50
2023-02-27T11:48:06.147Z,0.50
2023-02-27T11:50:47.189Z,0.40
2023-02-27T11:53:13.055Z,0.50
2023-02-27T11:55:30.705Z,0.40
2023-02-27T11:57:47.670Z,0.50
2023-02-27T12:00:07.755Z,0.40
2023-02-27T12:02:31.992Z,0.40
2023-02-27T12:04:54.587Z,0.40
2023-02-27T12:07:16.425Z,0.50
2023-02-27T12:09:42.870Z,0.40
2023-02-27T12:11:56.958Z,0.50
2023-02-27T12:14:15.139Z,0.40
2023-02-27T12:16:35.313Z,0.40
2023-02-27T12:18:53.842Z,0.50
2023-02-27T12:21:13.028Z,0.50
2023-02-27T12:23:32.605Z,0.40
2023-02-27T12:25:53.854Z,0.50
2023-02-27T12:28:15.534Z,0.50
2023-02-27T12:30:35.444Z,0.50
2023-02-27T12:32:53.423Z,0.50
2023-02-27T12:35:14.684Z,0.40
2023-02-27T12:37:31.026Z,0.50
2023-02-27T12:39:46.442Z,0.60
2023-02-27T12:42:28.531Z,0.50
2023-02-27T12:44:57.551Z,0.50
2023-02-27T12:47:25.735Z,0.60
2023-02-27T12:49:51.278Z,0.60
2023-02-27T12:52:15.869Z,0.50
2023-02-27T12:54:46.740Z,0.60
2023-02-27T12:57:10.029Z,0.50
2023-02-27T12:59:43.606Z,0.50
2023-02-27T13:02:03.285Z,0.60
2023-02-27T13:04:27.343Z,0.50
2023-02-27T13:06:47.574Z,0.50
2023-02-27T13:09:22.498Z,0.50
2023-02-27T13:11:48.696Z,0.90
2023-02-27T13:14:10.695Z,0.60
2023-02-27T13:16:30.116Z,0.60
2023-02-27T13:18:48.890Z,0.50
2023-02-27T13:21:09.268Z,0.70
2023-02-27T13:23:27.993Z,0.50
2023-02-27T13:25:45.715Z,0.50
2023-02-27T13:28:03.246Z,0.50
2023-02-27T13:30:26.110Z,0.60
2023-02-27T13:32:44.945Z,0.60
2023-02-27T13:35:04.327Z,0.70
2023-02-27T13:37:17.677Z,0.50
2023-02-27T13:40:02.916Z,0.50
2023-02-27T13:42:44.567Z,0.50
2023-02-27T13:44:58.290Z,0.70
2023-02-27T13:47:52.108Z,0.50
2023-02-27T13:50:06.190Z,1.20
2023-02-27T13:52:31.577Z,0.60
2023-02-27T13:54:47.856Z,0.50
2023-02-27T13:57:25.595Z,0.50
2023-02-27T13:59:40.814Z,0.50
2023-02-27T14:01:58.767Z,0.50
2023-02-27T14:04:21.204Z,0.50
2023-02-27T14:09:02.116Z,0.60
2023-02-27T14:11:30.015Z,0.70
2023-02-27T14:14:04.616Z,0.50
2023-02-27T14:16:38.316Z,0.40
2023-02-27T14:19:00.468Z,0.60
2023-02-27T14:21:14.253Z,0.60
2023-02-27T14:23:31.543Z,0.50
2023-02-27T14:25:48.973Z,0.80
2023-02-27T14:28:05.571Z,0.60
2023-02-27T14:30:35.753Z,0.80
2023-02-27T14:32:49.570Z,0.70
2023-02-27T14:35:03.626Z,0.40
2023-02-27T14:37:22.884Z,0.50
2023-02-27T14:39:38.356Z,1.00
2023-02-27T14:41:59.579Z,0.50
2023-02-27T14:44:24.812Z,0.50
2023-02-27T14:46:41.923Z,0.70
2023-02-27T14:49:00.140Z,0.50
2023-02-27T14:51:13.993Z,0.50
2023-02-27T14:53:31.795Z,0.40
2023-02-27T14:55:45.075Z,0.50
2023-02-27T14:58:12.176Z,0.50
2023-02-27T15:00:43.175Z,0.50
2023-02-27T15:02:57.377Z,0.60
2023-02-27T15:05:26.468Z,0.40
2023-02-27T15:07:41.260Z,0.50
2023-02-27T15:09:57.483Z,0.40
2023-02-27T15:12:12.033Z,0.40
2023-02-27T15:14:33.602Z,0.80
2023-02-27T15:16:47.753Z,0.40
2023-02-27T15:19:03.816Z,0.50
2023-02-27T15:21:23.405Z,0.40
2023-02-27T15:23:37.045Z,0.40
2023-02-27T15:25:50.234Z,0.40
2023-02-27T15:28:09.747Z,0.40
2023-02-27T15:30:30.421Z,0.50
2023-02-27T15:32:46.507Z,0.30
2023-02-27T15:35:00.667Z,0.40
2023-02-27T15:37:19.860Z,0.50
2023-02-27T15:39:36.287Z,0.40
2023-02-27T15:41:53.954Z,0.40
2023-02-27T15:44:07.965Z,0.40
2023-02-27T15:46:21.091Z,0.40
2023-02-27T15:48:36.092Z,0.50
2023-02-27T15:50:52.669Z,0.50
2023-02-27T15:53:14.486Z,0.50
2023-02-27T15:55:31.983Z,0.40
2023-02-27T15:57:56.498Z,0.40
2023-02-27T16:00:21.826Z,0.40
2023-02-27T16:02:41.918Z,0.40
2023-02-27T16:04:55.937Z,0.40
2023-02-27T16:07:18.902Z,0.40
2023-02-27T16:09:36.760Z,0.50
2023-02-27T16:12:24.891Z,0.50
2023-02-27T16:14:49.352Z,0.70
2023-02-27T16:17:03.431Z,0.50
2023-02-27T16:19:33.698Z,0.70
2023-02-27T16:22:15.424Z,0.60
2023-02-27T16:24:36.234Z,0.50
2023-02-27T16:26:53.632Z,0.50
2023-02-27T16:29:09.721Z,0.50
2023-02-27T16:31:30.153Z,0.60
2023-02-27T16:33:43.912Z,0.40
2023-02-27T16:36:21.960Z,0.80
2023-02-27T16:38:35.013Z,0.50
2023-02-27T16:40:48.499Z,0.60
2023-02-27T16:43:02.643Z,0.50
2023-02-27T16:45:20.960Z,0.60
2023-02-27T16:47:34.126Z,0.50
2023-02-27T16:49:48.498Z,0.90
2023-02-27T16:52:02.464Z,0.40
2023-02-27T16:54:17.746Z,0.50
2023-02-27T16:56:38.113Z,0.40
2023-02-27T16:58:52.810Z,0.70
2023-02-27T17:01:05.808Z,0.60
2023-02-27T17:03:18.872Z,0.60
2023-02-27T17:05:32.892Z,0.40
2023-02-27T17:07:46.848Z,0.60
2023-02-27T17:10:01.328Z,0.50
2023-02-27T17:12:14.895Z,0.50
2023-02-27T17:14:28.347Z,0.60
2023-02-27T17:16:41.714Z,0.60
2023-02-27T17:18:54.976Z,0.60
2023-02-27T17:21:08.483Z,0.50
2023-02-27T17:23:23.576Z,0.50
2023-02-27T17:25:36.757Z,0.50
2023-02-27T17:27:51.012Z,0.50
2023-02-27T17:30:04.739Z,0.60
2023-02-27T17:32:17.748Z,0.70
2023-02-27T17:34:31.235Z,1.10
2023-02-27T17:36:44.708Z,0.40
2023-02-27T17:39:05.659Z,1.50
2023-02-27T17:41:19.477Z,0.50
2023-02-27T17:43:32.567Z,0.50
2023-02-27T17:45:46.661Z,0.60
2023-02-27T17:47:59.894Z,0.60
2023-02-27T17:50:18.236Z,0.40
2023-02-27T17:52:31.339Z,0.60
2023-02-27T17:54:44.653Z,0.40
2023-02-27T17:56:57.611Z,0.60
2023-02-27T17:59:10.853Z,0.50
2023-02-27T18:01:26.844Z,0.50
2023-02-27T18:03:40.033Z,0.50
2023-02-27T18:05:57.183Z,1.00
2023-02-27T18:08:10.613Z,0.50
2023-02-27T18:10:24.223Z,0.60
2023-02-27T18:12:37.492Z,0.70
2023-02-27T18:14:51.212Z,2.10
2023-02-27T18:17:04.445Z,1.00
2023-02-27T18:19:19.981Z,1.30
2023-02-27T18:21:33.441Z,1.40
2023-02-27T18:23:47.581Z,1.70
2023-02-27T18:26:02.861Z,0.80
2023-02-27T18:28:16.698Z,0.50
2023-02-27T18:30:30.940Z,0.50
2023-02-27T18:32:45.289Z,0.80
2023-02-27T18:34:58.932Z,4.20
2023-02-27T18:37:13.293Z,3.20
2023-02-27T18:39:26.493Z,2.90
2023-02-27T18:41:40.483Z,1.80
2023-02-27T18:43:53.819Z,0.90
2023-02-27T18:46:08.059Z,1.50
2023-02-27T18:48:22.077Z,1.90
2023-02-27T18:50:35.723Z,1.20
2023-02-27T18:52:49.923Z,0.80
2023-02-27T18:55:03.423Z,0.40
2023-02-27T18:57:17.120Z,0.50
2023-02-27T18:59:30.617Z,0.70
2023-02-27T19:01:44.683Z,0.40
2023-02-27T19:04:04.724Z,1.00
2023-02-27T19:06:18.131Z,0.80
2023-02-27T19:08:31.836Z,0.60
2023-02-27T19:10:47.704Z,0.70
2023-02-27T19:13:00.974Z,0.40
2023-02-27T19:15:16.025Z,0.90
2023-02-27T19:17:29.067Z,0.40
2023-02-27T19:19:42.954Z,4.30
2023-02-27T19:21:56.413Z,1.10
2023-02-27T19:24:10.026Z,0.40
2023-02-27T19:26:23.034Z,0.60
2023-02-27T19:28:36.367Z,0.60
2023-02-27T19:30:49.628Z,0.60
2023-02-27T19:33:02.561Z,0.40
2023-02-27T19:35:16.544Z,1.80
2023-02-27T19:37:29.423Z,0.40
2023-02-27T19:39:43.225Z,0.30
2023-02-27T19:41:56.256Z,0.30
2023-02-27T19:44:09.635Z,0.40
2023-02-27T19:46:25.036Z,0.30
2023-02-27T19:48:38.465Z,0.30
2023-02-27T19:50:51.423Z,0.30
2023-02-27T19:53:04.573Z,0.30
2023-02-27T19:55:17.764Z,0.40
2023-02-27T19:57:31.202Z,0.40
2023-02-27T19:59:44.525Z,0.50
2023-02-27T20:02:01.472Z,0.60
2023-02-27T20:04:15.689Z,0.40
2023-02-27T20:06:31.237Z,0.30
2023-02-27T20:08:44.424Z,0.30
2023-02-27T20:11:07.589Z,1.20
2023-02-27T20:13:20.646Z,0.60
2023-02-27T20:15:33.974Z,0.50
2023-02-27T20:17:47.282Z,0.90
2023-02-27T20:20:01.269Z,1.30
2023-02-27T20:22:14.963Z,2.40
2023-02-27T20:24:28.498Z,1.30
2023-02-27T20:26:43.859Z,0.60
2023-02-27T20:28:58.892Z,0.50
2023-02-27T20:31:15.920Z,1.10
2023-02-27T20:33:29.142Z,1.30
2023-02-27T20:35:45.123Z,1.00
2023-02-27T20:37:58.342Z,2.50
2023-02-27T20:40:13.643Z,1.10
2023-02-27T20:42:27.972Z,0.90
2023-02-27T20:44:41.753Z,0.60
2023-02-27T20:46:55.213Z,0.50
2023-02-27T20:49:11.344Z,1.30
2023-02-27T20:51:27.301Z,0.50
2023-02-27T20:53:43.114Z,0.60
2023-02-27T20:55:59.433Z,0.90
2023-02-27T20:58:12.909Z,2.00
2023-02-27T21:00:30.685Z,2.30
2023-02-27T21:02:45.747Z,2.30
2023-02-27T21:05:00.642Z,1.90
2023-02-27T21:07:14.205Z,2.10
2023-02-27T21:09:27.407Z,0.60
2023-02-27T21:11:40.986Z,0.60
2023-02-27T21:13:54.564Z,0.50
2023-02-27T21:16:10.365Z,0.40
2023-02-27T21:18:24.206Z,0.40
2023-02-27T21:20:46.270Z,0.70
2023-02-27T21:22:59.427Z,0.80
2023-02-27T21:25:13.398Z,0.80
2023-02-27T21:27:26.435Z,0.50
2023-02-27T21:29:39.563Z,0.90
2023-02-27T21:31:54.773Z,1.40
2023-02-27T21:34:10.197Z,0.90
2023-02-27T21:36:27.613Z,0.60
2023-02-27T21:38:40.731Z,0.80
2023-02-27T21:40:53.683Z,0.90
2023-02-27T21:43:07.261Z,0.80
2023-02-27T21:45:20.923Z,0.40
2023-02-27T21:47:34.688Z,0.70
2023-02-27T21:49:47.633Z,2.30
2023-02-27T21:52:01.503Z,2.70
2023-02-27T21:54:16.964Z,2.40
2023-02-27T21:56:31.432Z,1.50
2023-02-27T21:58:45.726Z,1.00
2023-02-27T22:00:58.853Z,1.60
2023-02-27T22:03:12.925Z,0.70
2023-02-27T22:05:26.171Z,0.40
2023-02-27T22:07:40.292Z,0.90
2023-02-27T22:09:53.558Z,0.70
2023-02-27T22:12:07.324Z,0.50
2023-02-27T22:14:20.883Z,1.10
2023-02-27T22:16:35.209Z,0.40
2023-02-27T22:18:48.873Z,0.50
2023-02-27T22:21:02.804Z,0.40
2023-02-27T22:23:16.463Z,0.40
2023-02-27T22:25:29.482Z,0.50
2023-02-27T22:27:42.861Z,0.70
2023-02-27T22:29:56.152Z,0.60
2023-02-27T22:32:09.495Z,0.80
2023-02-27T22:34:23.379Z,0.80
2023-02-27T22:36:37.412Z,1.30
2023-02-27T22:38:51.382Z,0.80
2023-02-27T22:41:10.512Z,2.00
2023-02-27T22:43:23.972Z,3.30
2023-02-27T22:45:36.941Z,2.50
2023-02-27T22:47:50.423Z,3.30
2023-02-27T22:50:03.399Z,3.30
2023-02-27T22:52:16.293Z,2.60
2023-02-27T22:54:29.762Z,2.50
2023-02-27T22:56:43.588Z,3.20
2023-02-27T22:58:56.875Z,4.00
2023-02-27T23:01:14.027Z,4.60
2023-02-27T23:03:27.181Z,6.60
2023-02-27T23:05:47.581Z,4.70
2023-02-27T23:08:01.085Z,5.40
2023-02-27T23:10:16.792Z,6.70
2023-02-27T23:12:30.127Z,3.80
2023-02-27T23:14:43.728Z,2.40
2023-02-27T23:16:57.154Z,2.70
2023-02-27T23:19:10.452Z,3.30
2023-02-27T23:21:26.319Z,2.40
2023-02-27T23:23:40.228Z,2.60
2023-02-27T23:25:54.761Z,2.60
2023-02-27T23:28:09.029Z,2.60
2023-02-27T23:30:25.502Z,1.30
2023-02-27T23:32:44.696Z,1.00
2023-02-27T23:34:58.176Z,1.50
2023-02-27T23:37:11.954Z,2.70
2023-02-27T23:39:25.180Z,0.90
2023-02-27T23:41:38.538Z,1.80
2023-02-27T23:43:55.090Z,1.40
2023-02-27T23:46:12.152Z,1.10
2023-02-27T23:48:25.461Z,0.80
2023-02-27T23:50:41.081Z,0.60
2023-02-27T23:52:55.845Z,0.70
2023-02-27T23:55:11.225Z,0.50
2023-02-27T23:57:25.200Z,0.40
2023-02-27T23:59:38.427Z,0.50
